sensor_id;sensor_type;location;lat;lon;timestamp;temperature;humidity
6724;DHT22;3399;52.530;13.304;2024-01-07T00:01:26;0.10;99.90
6724;DHT22;3399;52.530;13.304;2024-01-07T00:03:52;0.10;99.90
6724;DHT22;3399;52.530;13.304;2024-01-07T00:06:17;0.10;99.90
6724;DHT22;3399;52.530;13.304;2024-01-07T00:08:43;0.10;99.90
6724;DHT22;3399;52.530;13.304;2024-01-07T00:11:09;0.10;99.90
6724;DHT22;3399;52.530;13.304;2024-01-07T00:13:34;0.20;99.90
6724;DHT22;3399;52.530;13.304;2024-01-07T00:16:00;0.20;99.90
6724;DHT22;3399;52.530;13.304;2024-01-07T00:18:25;0.10;99.90
6724;DHT22;3399;52.530;13.304;2024-01-07T00:20:52;-0.10;99.90
6724;DHT22;3399;52.530;13.304;2024-01-07T00:23:18;0.00;99.90
6724;DHT22;3399;52.530;13.304;2024-01-07T00:25:43;-0.10;99.90
6724;DHT22;3399;52.530;13.304;2024-01-07T00:28:09;-0.10;99.90
6724;DHT22;3399;52.530;13.304;2024-01-07T00:30:35;0.00;99.90
6724;DHT22;3399;52.530;13.304;2024-01-07T00:33:00;0.00;99.90
6724;DHT22;3399;52.530;13.304;2024-01-07T00:35:26;0.00;99.90
6724;DHT22;3399;52.530;13.304;2024-01-07T00:37:51;-0.20;99.90
6724;DHT22;3399;52.530;13.304;2024-01-07T00:40:17;-0.20;99.90
6724;DHT22;3399;52.530;13.304;2024-01-07T00:42:43;-0.20;99.90
6724;DHT22;3399;52.530;13.304;2024-01-07T00:45:08;-0.20;99.90
6724;DHT22;3399;52.530;13.304;2024-01-07T00:47:35;-0.20;99.90
6724;DHT22;3399;52.530;13.304;2024-01-07T00:50:00;-0.20;99.90
6724;DHT22;3399;52.530;13.304;2024-01-07T00:52:26;-0.20;99.90
6724;DHT22;3399;52.530;13.304;2024-01-07T00:54:52;-0.30;99.90
6724;DHT22;3399;52.530;13.304;2024-01-07T00:57:17;-0.40;99.90
6724;DHT22;3399;52.530;13.304;2024-01-07T00:59:43;-0.40;99.90
6724;DHT22;3399;52.530;13.304;2024-01-07T01:02:08;-0.40;99.90
6724;DHT22;3399;52.530;13.304;2024-01-07T01:04:34;-0.30;99.90
6724;DHT22;3399;52.530;13.304;2024-01-07T01:06:59;-0.30;99.90
6724;DHT22;3399;52.530;13.304;2024-01-07T01:09:27;-0.20;99.90
6724;DHT22;3399;52.530;13.304;2024-01-07T01:11:53;-0.30;99.90
6724;DHT22;3399;52.530;13.304;2024-01-07T01:14:18;-0.30;99.90
6724;DHT22;3399;52.530;13.304;2024-01-07T01:16:43;-0.40;99.90
6724;DHT22;3399;52.530;13.304;2024-01-07T01:19:09;-0.40;99.90
6724;DHT22;3399;52.530;13.304;2024-01-07T01:21:35;-0.30;99.90
6724;DHT22;3399;52.530;13.304;2024-01-07T01:24:00;-0.30;99.90
6724;DHT22;3399;52.530;13.304;2024-01-07T01:26:25;-0.40;99.90
6724;DHT22;3399;52.530;13.304;2024-01-07T01:28:51;-0.50;99.90
6724;DHT22;3399;52.530;13.304;2024-01-07T01:31:16;-0.60;99.90
6724;DHT22;3399;52.530;13.304;2024-01-07T01:33:43;-0.60;99.90
6724;DHT22;3399;52.530;13.304;2024-01-07T01:36:08;-0.60;99.90
6724;DHT22;3399;52.530;13.304;2024-01-07T01:38:34;-0.60;99.90
6724;DHT22;3399;52.530;13.304;2024-01-07T01:40:59;-0.50;99.90
6724;DHT22;3399;52.530;13.304;2024-01-07T01:43:26;-0.80;99.90
6724;DHT22;3399;52.530;13.304;2024-01-07T01:45:56;-0.70;99.90
6724;DHT22;3399;52.530;13.304;2024-01-07T01:48:23;-0.70;99.90
6724;DHT22;3399;52.530;13.304;2024-01-07T01:50:49;-0.60;99.90
6724;DHT22;3399;52.530;13.304;2024-01-07T01:53:15;-0.70;99.90
6724;DHT22;3399;52.530;13.304;2024-01-07T01:55:42;-0.80;99.90
6724;DHT22;3399;52.530;13.304;2024-01-07T01:58:13;-0.70;99.90
6724;DHT22;3399;52.530;13.304;2024-01-07T02:00:39;-0.80;99.90
6724;DHT22;3399;52.530;13.304;2024-01-07T02:03:05;-0.70;99.90
6724;DHT22;3399;52.530;13.304;2024-01-07T02:05:31;-0.70;99.90
6724;DHT22;3399;52.530;13.304;2024-01-07T02:07:57;-0.70;99.90
6724;DHT22;3399;52.530;13.304;2024-01-07T02:10:23;-0.60;99.90
6724;DHT22;3399;52.530;13.304;2024-01-07T02:12:49;-0.80;99.90
6724;DHT22;3399;52.530;13.304;2024-01-07T02:15:15;-0.70;99.90
6724;DHT22;3399;52.530;13.304;2024-01-07T02:17:41;-0.70;99.90
6724;DHT22;3399;52.530;13.304;2024-01-07T02:20:06;-0.60;99.90
6724;DHT22;3399;52.530;13.304;2024-01-07T02:22:32;-0.70;99.90
6724;DHT22;3399;52.530;13.304;2024-01-07T02:24:57;-0.60;99.90
6724;DHT22;3399;52.530;13.304;2024-01-07T02:27:23;-0.70;99.90
6724;DHT22;3399;52.530;13.304;2024-01-07T02:29:48;-0.80;99.90
6724;DHT22;3399;52.530;13.304;2024-01-07T02:32:14;-0.70;99.90
6724;DHT22;3399;52.530;13.304;2024-01-07T02:34:39;-0.70;99.90
6724;DHT22;3399;52.530;13.304;2024-01-07T02:37:05;-0.70;99.90
6724;DHT22;3399;52.530;13.304;2024-01-07T02:39:30;-0.80;99.90
6724;DHT22;3399;52.530;13.304;2024-01-07T02:41:56;-0.90;99.90
6724;DHT22;3399;52.530;13.304;2024-01-07T02:44:21;-1.00;99.90
6724;DHT22;3399;52.530;13.304;2024-01-07T02:46:47;-0.80;99.90
6724;DHT22;3399;52.530;13.304;2024-01-07T02:49:13;-1.00;99.90
6724;DHT22;3399;52.530;13.304;2024-01-07T02:51:38;-1.00;99.90
6724;DHT22;3399;52.530;13.304;2024-01-07T02:54:04;-1.00;99.90
6724;DHT22;3399;52.530;13.304;2024-01-07T02:56:29;-1.10;99.90
6724;DHT22;3399;52.530;13.304;2024-01-07T02:58:55;-1.10;99.90
6724;DHT22;3399;52.530;13.304;2024-01-07T03:01:24;-1.20;99.90
6724;DHT22;3399;52.530;13.304;2024-01-07T03:03:50;-1.10;99.90
6724;DHT22;3399;52.530;13.304;2024-01-07T03:06:16;-1.10;99.90
6724;DHT22;3399;52.530;13.304;2024-01-07T03:08:42;-1.20;99.90
6724;DHT22;3399;52.530;13.304;2024-01-07T03:11:08;-1.20;99.90
6724;DHT22;3399;52.530;13.304;2024-01-07T03:13:34;-1.20;99.90
6724;DHT22;3399;52.530;13.304;2024-01-07T03:15:59;-1.20;99.90
6724;DHT22;3399;52.530;13.304;2024-01-07T03:18:27;-1.30;99.90
6724;DHT22;3399;52.530;13.304;2024-01-07T03:20:52;-1.20;99.90
6724;DHT22;3399;52.530;13.304;2024-01-07T03:23:18;-1.30;99.90
6724;DHT22;3399;52.530;13.304;2024-01-07T03:25:44;-1.30;99.90
6724;DHT22;3399;52.530;13.304;2024-01-07T03:28:09;-1.20;99.90
6724;DHT22;3399;52.530;13.304;2024-01-07T03:30:35;-1.20;99.90
6724;DHT22;3399;52.530;13.304;2024-01-07T03:33:00;-1.20;99.90
6724;DHT22;3399;52.530;13.304;2024-01-07T03:35:26;-1.10;99.90
6724;DHT22;3399;52.530;13.304;2024-01-07T03:37:52;-1.20;99.90
6724;DHT22;3399;52.530;13.304;2024-01-07T03:40:18;-1.20;99.90
6724;DHT22;3399;52.530;13.304;2024-01-07T03:42:43;-1.10;99.90
6724;DHT22;3399;52.530;13.304;2024-01-07T03:45:09;-1.20;99.90
6724;DHT22;3399;52.530;13.304;2024-01-07T03:47:34;-1.20;99.90
6724;DHT22;3399;52.530;13.304;2024-01-07T03:50:00;-1.30;99.90
6724;DHT22;3399;52.530;13.304;2024-01-07T03:52:25;-1.30;99.90
6724;DHT22;3399;52.530;13.304;2024-01-07T03:54:51;-1.40;99.90
6724;DHT22;3399;52.530;13.304;2024-01-07T03:57:16;-1.40;99.90
6724;DHT22;3399;52.530;13.304;2024-01-07T03:59:42;-1.30;99.90
6724;DHT22;3399;52.530;13.304;2024-01-07T04:02:07;-1.30;99.90
6724;DHT22;3399;52.530;13.304;2024-01-07T04:04:33;-1.30;99.90
6724;DHT22;3399;52.530;13.304;2024-01-07T04:06:58;-1.30;99.90
6724;DHT22;3399;52.530;13.304;2024-01-07T04:09:24;-1.40;99.90
6724;DHT22;3399;52.530;13.304;2024-01-07T04:11:49;-1.30;99.90
6724;DHT22;3399;52.530;13.304;2024-01-07T04:14:15;-1.30;99.90
6724;DHT22;3399;52.530;13.304;2024-01-07T04:16:41;-1.50;99.90
6724;DHT22;3399;52.530;13.304;2024-01-07T04:19:06;-1.50;99.90
6724;DHT22;3399;52.530;13.304;2024-01-07T04:21:31;-1.50;99.90
6724;DHT22;3399;52.530;13.304;2024-01-07T04:23:57;-1.50;99.90
6724;DHT22;3399;52.530;13.304;2024-01-07T04:26:23;-1.50;99.90
6724;DHT22;3399;52.530;13.304;2024-01-07T04:28:48;-1.40;99.90
6724;DHT22;3399;52.530;13.304;2024-01-07T04:31:14;-1.50;99.90
6724;DHT22;3399;52.530;13.304;2024-01-07T04:33:39;-1.50;99.90
6724;DHT22;3399;52.530;13.304;2024-01-07T04:36:05;-1.50;99.90
6724;DHT22;3399;52.530;13.304;2024-01-07T04:38:30;-1.50;99.90
6724;DHT22;3399;52.530;13.304;2024-01-07T04:40:56;-1.50;99.90
6724;DHT22;3399;52.530;13.304;2024-01-07T04:43:21;-1.50;99.90
6724;DHT22;3399;52.530;13.304;2024-01-07T04:45:47;-1.50;99.90
6724;DHT22;3399;52.530;13.304;2024-01-07T04:48:13;-1.50;99.90
6724;DHT22;3399;52.530;13.304;2024-01-07T04:50:42;-1.60;99.90
6724;DHT22;3399;52.530;13.304;2024-01-07T04:53:08;-1.50;99.90
6724;DHT22;3399;52.530;13.304;2024-01-07T04:55:34;-1.40;99.90
6724;DHT22;3399;52.530;13.304;2024-01-07T04:57:59;-1.50;99.90
6724;DHT22;3399;52.530;13.304;2024-01-07T05:00:25;-1.50;99.90
6724;DHT22;3399;52.530;13.304;2024-01-07T05:02:50;-1.50;99.90
6724;DHT22;3399;52.530;13.304;2024-01-07T05:05:16;-1.40;99.90
6724;DHT22;3399;52.530;13.304;2024-01-07T05:07:41;-1.40;99.90
6724;DHT22;3399;52.530;13.304;2024-01-07T05:10:07;-1.40;99.90
6724;DHT22;3399;52.530;13.304;2024-01-07T05:12:33;-1.40;99.90
6724;DHT22;3399;52.530;13.304;2024-01-07T05:14:58;-1.40;99.90
6724;DHT22;3399;52.530;13.304;2024-01-07T05:17:24;-1.40;99.90
6724;DHT22;3399;52.530;13.304;2024-01-07T05:19:49;-1.30;99.90
6724;DHT22;3399;52.530;13.304;2024-01-07T05:22:15;-1.20;99.90
6724;DHT22;3399;52.530;13.304;2024-01-07T05:24:40;-1.20;99.90
6724;DHT22;3399;52.530;13.304;2024-01-07T05:27:06;-1.30;99.90
6724;DHT22;3399;52.530;13.304;2024-01-07T05:29:32;-1.20;99.90
6724;DHT22;3399;52.530;13.304;2024-01-07T05:32:01;-1.20;99.90
6724;DHT22;3399;52.530;13.304;2024-01-07T05:34:28;-1.30;99.90
6724;DHT22;3399;52.530;13.304;2024-01-07T05:36:53;-1.20;99.90
6724;DHT22;3399;52.530;13.304;2024-01-07T05:39:19;-1.30;99.90
6724;DHT22;3399;52.530;13.304;2024-01-07T05:41:45;-1.20;99.90
6724;DHT22;3399;52.530;13.304;2024-01-07T05:44:11;-1.20;99.90
6724;DHT22;3399;52.530;13.304;2024-01-07T05:46:40;-1.20;99.90
6724;DHT22;3399;52.530;13.304;2024-01-07T05:49:08;-1.10;99.90
6724;DHT22;3399;52.530;13.304;2024-01-07T05:51:33;-1.10;99.90
6724;DHT22;3399;52.530;13.304;2024-01-07T05:53:59;-1.10;99.90
6724;DHT22;3399;52.530;13.304;2024-01-07T05:56:24;-1.10;99.90
6724;DHT22;3399;52.530;13.304;2024-01-07T05:58:50;-1.20;99.90
6724;DHT22;3399;52.530;13.304;2024-01-07T06:01:20;-1.10;99.90
6724;DHT22;3399;52.530;13.304;2024-01-07T06:03:46;-1.00;99.90
6724;DHT22;3399;52.530;13.304;2024-01-07T06:06:13;-0.90;99.90
6724;DHT22;3399;52.530;13.304;2024-01-07T06:08:40;-1.00;99.90
6724;DHT22;3399;52.530;13.304;2024-01-07T06:11:06;-0.90;99.90
6724;DHT22;3399;52.530;13.304;2024-01-07T06:13:32;-0.80;99.90
6724;DHT22;3399;52.530;13.304;2024-01-07T06:15:57;-0.80;99.90
6724;DHT22;3399;52.530;13.304;2024-01-07T06:18:23;-0.90;99.90
6724;DHT22;3399;52.530;13.304;2024-01-07T06:20:48;-1.00;99.90
6724;DHT22;3399;52.530;13.304;2024-01-07T06:23:14;-0.90;99.90
6724;DHT22;3399;52.530;13.304;2024-01-07T06:25:39;-0.70;99.90
6724;DHT22;3399;52.530;13.304;2024-01-07T06:28:05;-0.70;99.90
6724;DHT22;3399;52.530;13.304;2024-01-07T06:30:30;-0.70;99.90
6724;DHT22;3399;52.530;13.304;2024-01-07T06:32:56;-0.60;99.90
6724;DHT22;3399;52.530;13.304;2024-01-07T06:35:21;-0.70;99.90
6724;DHT22;3399;52.530;13.304;2024-01-07T06:37:47;-0.60;99.90
6724;DHT22;3399;52.530;13.304;2024-01-07T06:40:13;-0.80;99.90
6724;DHT22;3399;52.530;13.304;2024-01-07T06:42:39;-0.80;99.90
6724;DHT22;3399;52.530;13.304;2024-01-07T06:45:05;-0.70;99.90
6724;DHT22;3399;52.530;13.304;2024-01-07T06:47:30;-0.80;99.90
6724;DHT22;3399;52.530;13.304;2024-01-07T06:49:56;-0.90;99.90
6724;DHT22;3399;52.530;13.304;2024-01-07T06:52:21;-1.00;99.90
6724;DHT22;3399;52.530;13.304;2024-01-07T06:54:47;-0.90;99.90
6724;DHT22;3399;52.530;13.304;2024-01-07T06:57:12;-0.80;99.90
6724;DHT22;3399;52.530;13.304;2024-01-07T06:59:37;-0.80;99.90
6724;DHT22;3399;52.530;13.304;2024-01-07T07:02:03;-0.80;99.90
6724;DHT22;3399;52.530;13.304;2024-01-07T07:04:28;-0.80;99.90
6724;DHT22;3399;52.530;13.304;2024-01-07T07:06:54;-0.80;99.90
6724;DHT22;3399;52.530;13.304;2024-01-07T07:09:19;-0.80;99.90
6724;DHT22;3399;52.530;13.304;2024-01-07T07:11:45;-0.80;99.90
6724;DHT22;3399;52.530;13.304;2024-01-07T07:14:10;-0.70;99.90
6724;DHT22;3399;52.530;13.304;2024-01-07T07:16:36;-0.70;99.90
6724;DHT22;3399;52.530;13.304;2024-01-07T07:19:01;-0.70;99.90
6724;DHT22;3399;52.530;13.304;2024-01-07T07:21:27;-0.70;99.90
6724;DHT22;3399;52.530;13.304;2024-01-07T07:23:53;-0.70;99.90
6724;DHT22;3399;52.530;13.304;2024-01-07T07:26:18;-0.60;99.90
6724;DHT22;3399;52.530;13.304;2024-01-07T07:28:44;-0.60;99.90
6724;DHT22;3399;52.530;13.304;2024-01-07T07:31:11;-0.60;99.90
6724;DHT22;3399;52.530;13.304;2024-01-07T07:33:38;-0.50;99.90
6724;DHT22;3399;52.530;13.304;2024-01-07T07:36:05;-0.50;99.90
6724;DHT22;3399;52.530;13.304;2024-01-07T07:38:30;-0.50;99.90
6724;DHT22;3399;52.530;13.304;2024-01-07T07:40:56;-0.50;99.90
6724;DHT22;3399;52.530;13.304;2024-01-07T07:43:21;-0.40;99.90
6724;DHT22;3399;52.530;13.304;2024-01-07T07:45:47;-0.30;99.90
6724;DHT22;3399;52.530;13.304;2024-01-07T07:48:13;-0.50;99.90
6724;DHT22;3399;52.530;13.304;2024-01-07T07:50:38;-0.50;99.90
6724;DHT22;3399;52.530;13.304;2024-01-07T07:53:05;-0.50;99.90
6724;DHT22;3399;52.530;13.304;2024-01-07T07:55:31;-0.60;99.90
6724;DHT22;3399;52.530;13.304;2024-01-07T07:57:56;-0.60;99.90
6724;DHT22;3399;52.530;13.304;2024-01-07T08:00:23;-0.70;99.90
6724;DHT22;3399;52.530;13.304;2024-01-07T08:02:48;-0.60;99.90
6724;DHT22;3399;52.530;13.304;2024-01-07T08:05:14;-0.70;99.90
6724;DHT22;3399;52.530;13.304;2024-01-07T08:07:39;-0.50;99.90
6724;DHT22;3399;52.530;13.304;2024-01-07T08:10:06;-0.50;99.90
6724;DHT22;3399;52.530;13.304;2024-01-07T08:12:31;-0.60;99.90
6724;DHT22;3399;52.530;13.304;2024-01-07T08:14:57;-0.40;99.90
6724;DHT22;3399;52.530;13.304;2024-01-07T08:17:22;-0.40;99.90
6724;DHT22;3399;52.530;13.304;2024-01-07T08:19:48;-0.50;99.90
6724;DHT22;3399;52.530;13.304;2024-01-07T08:22:13;-0.60;99.90
6724;DHT22;3399;52.530;13.304;2024-01-07T08:24:39;-0.40;99.90
6724;DHT22;3399;52.530;13.304;2024-01-07T08:27:05;-0.30;99.90
6724;DHT22;3399;52.530;13.304;2024-01-07T08:29:30;-0.50;99.90
6724;DHT22;3399;52.530;13.304;2024-01-07T08:31:56;-0.50;99.90
6724;DHT22;3399;52.530;13.304;2024-01-07T08:34:21;-0.40;99.90
6724;DHT22;3399;52.530;13.304;2024-01-07T08:36:46;-0.40;99.90
6724;DHT22;3399;52.530;13.304;2024-01-07T08:39:15;-0.20;99.90
6724;DHT22;3399;52.530;13.304;2024-01-07T08:41:40;-0.30;99.90
6724;DHT22;3399;52.530;13.304;2024-01-07T08:44:06;-0.20;99.90
6724;DHT22;3399;52.530;13.304;2024-01-07T08:46:34;-0.20;99.90
6724;DHT22;3399;52.530;13.304;2024-01-07T08:48:59;-0.30;99.90
6724;DHT22;3399;52.530;13.304;2024-01-07T08:51:25;-0.20;99.90
6724;DHT22;3399;52.530;13.304;2024-01-07T08:53:50;-0.20;99.90
6724;DHT22;3399;52.530;13.304;2024-01-07T08:56:15;-0.10;99.90
6724;DHT22;3399;52.530;13.304;2024-01-07T08:58:41;-0.10;99.90
6724;DHT22;3399;52.530;13.304;2024-01-07T09:01:07;-0.10;99.90
6724;DHT22;3399;52.530;13.304;2024-01-07T09:03:33;0.10;99.90
6724;DHT22;3399;52.530;13.304;2024-01-07T09:05:58;0.30;99.90
6724;DHT22;3399;52.530;13.304;2024-01-07T09:08:24;0.20;99.90
6724;DHT22;3399;52.530;13.304;2024-01-07T09:10:50;0.20;99.90
6724;DHT22;3399;52.530;13.304;2024-01-07T09:13:15;0.20;99.90
6724;DHT22;3399;52.530;13.304;2024-01-07T09:15:41;0.10;99.90
6724;DHT22;3399;52.530;13.304;2024-01-07T09:18:07;0.10;99.90
6724;DHT22;3399;52.530;13.304;2024-01-07T09:20:32;-0.20;99.90
6724;DHT22;3399;52.530;13.304;2024-01-07T09:22:59;-0.50;99.90
6724;DHT22;3399;52.530;13.304;2024-01-07T09:25:24;-0.40;99.90
6724;DHT22;3399;52.530;13.304;2024-01-07T09:27:51;-0.50;99.90
6724;DHT22;3399;52.530;13.304;2024-01-07T09:30:17;-0.70;99.90
6724;DHT22;3399;52.530;13.304;2024-01-07T09:32:43;-0.60;99.90
6724;DHT22;3399;52.530;13.304;2024-01-07T09:35:08;-0.60;99.90
6724;DHT22;3399;52.530;13.304;2024-01-07T09:37:34;-0.50;99.90
6724;DHT22;3399;52.530;13.304;2024-01-07T09:40:01;-0.40;99.90
6724;DHT22;3399;52.530;13.304;2024-01-07T09:42:26;-0.30;99.90
6724;DHT22;3399;52.530;13.304;2024-01-07T09:44:52;-0.30;99.90
6724;DHT22;3399;52.530;13.304;2024-01-07T09:47:17;-0.10;99.90
6724;DHT22;3399;52.530;13.304;2024-01-07T09:49:43;-0.40;99.90
6724;DHT22;3399;52.530;13.304;2024-01-07T09:52:10;-0.70;99.90
6724;DHT22;3399;52.530;13.304;2024-01-07T09:54:37;-0.50;99.90
6724;DHT22;3399;52.530;13.304;2024-01-07T09:57:07;-0.20;99.90
6724;DHT22;3399;52.530;13.304;2024-01-07T09:59:34;0.00;99.90
6724;DHT22;3399;52.530;13.304;2024-01-07T10:02:00;-0.30;99.90
6724;DHT22;3399;52.530;13.304;2024-01-07T10:04:26;-0.30;99.90
6724;DHT22;3399;52.530;13.304;2024-01-07T10:06:52;-0.50;99.90
6724;DHT22;3399;52.530;13.304;2024-01-07T10:09:19;-0.40;99.90
6724;DHT22;3399;52.530;13.304;2024-01-07T10:11:47;-0.40;99.90
6724;DHT22;3399;52.530;13.304;2024-01-07T10:14:13;-0.30;99.90
6724;DHT22;3399;52.530;13.304;2024-01-07T10:16:39;-0.30;99.90
6724;DHT22;3399;52.530;13.304;2024-01-07T10:19:04;-0.50;99.90
6724;DHT22;3399;52.530;13.304;2024-01-07T10:21:30;-0.50;99.90
6724;DHT22;3399;52.530;13.304;2024-01-07T10:24:12;-0.40;99.90
6724;DHT22;3399;52.530;13.304;2024-01-07T10:26:39;-0.30;99.90
6724;DHT22;3399;52.530;13.304;2024-01-07T10:29:05;-0.20;99.90
6724;DHT22;3399;52.530;13.304;2024-01-07T10:31:32;-0.30;99.90
6724;DHT22;3399;52.530;13.304;2024-01-07T10:33:57;-0.10;99.90
6724;DHT22;3399;52.530;13.304;2024-01-07T10:36:24;-0.10;99.90
6724;DHT22;3399;52.530;13.304;2024-01-07T10:38:50;0.00;99.90
6724;DHT22;3399;52.530;13.304;2024-01-07T10:41:18;-0.30;99.90
6724;DHT22;3399;52.530;13.304;2024-01-07T10:43:48;-0.40;99.90
6724;DHT22;3399;52.530;13.304;2024-01-07T10:46:15;-0.20;99.90
6724;DHT22;3399;52.530;13.304;2024-01-07T10:48:59;0.00;99.90
6724;DHT22;3399;52.530;13.304;2024-01-07T10:51:28;0.00;99.90
6724;DHT22;3399;52.530;13.304;2024-01-07T10:53:56;-0.30;99.90
6724;DHT22;3399;52.530;13.304;2024-01-07T10:56:29;-0.30;99.90
6724;DHT22;3399;52.530;13.304;2024-01-07T10:58:58;0.00;99.90
6724;DHT22;3399;52.530;13.304;2024-01-07T11:01:24;0.20;99.90
6724;DHT22;3399;52.530;13.304;2024-01-07T11:04:17;0.40;99.90
6724;DHT22;3399;52.530;13.304;2024-01-07T11:07:04;0.50;99.90
6724;DHT22;3399;52.530;13.304;2024-01-07T11:09:53;0.40;99.90
6724;DHT22;3399;52.530;13.304;2024-01-07T11:12:20;0.60;99.90
6724;DHT22;3399;52.530;13.304;2024-01-07T11:14:46;0.70;99.90
6724;DHT22;3399;52.530;13.304;2024-01-07T11:17:39;0.20;99.90
6724;DHT22;3399;52.530;13.304;2024-01-07T11:20:25;-0.20;99.90
6724;DHT22;3399;52.530;13.304;2024-01-07T11:22:52;0.20;99.90
6724;DHT22;3399;52.530;13.304;2024-01-07T11:25:31;0.40;99.90
6724;DHT22;3399;52.530;13.304;2024-01-07T11:27:58;0.60;99.90
6724;DHT22;3399;52.530;13.304;2024-01-07T11:30:24;0.60;99.90
6724;DHT22;3399;52.530;13.304;2024-01-07T11:32:57;0.50;99.90
6724;DHT22;3399;52.530;13.304;2024-01-07T11:35:57;0.50;99.90
6724;DHT22;3399;52.530;13.304;2024-01-07T11:38:24;0.50;99.90
6724;DHT22;3399;52.530;13.304;2024-01-07T11:40:50;0.20;99.90
6724;DHT22;3399;52.530;13.304;2024-01-07T11:43:16;0.40;99.90
6724;DHT22;3399;52.530;13.304;2024-01-07T11:45:42;0.20;99.90
6724;DHT22;3399;52.530;13.304;2024-01-07T11:48:08;0.20;99.90
6724;DHT22;3399;52.530;13.304;2024-01-07T11:50:35;0.10;99.90
6724;DHT22;3399;52.530;13.304;2024-01-07T11:53:01;-0.30;99.90
6724;DHT22;3399;52.530;13.304;2024-01-07T11:55:27;-0.50;99.90
6724;DHT22;3399;52.530;13.304;2024-01-07T11:57:55;-0.70;99.90
6724;DHT22;3399;52.530;13.304;2024-01-07T12:00:21;-0.60;99.90
6724;DHT22;3399;52.530;13.304;2024-01-07T12:02:47;-0.50;99.90
6724;DHT22;3399;52.530;13.304;2024-01-07T12:05:12;-0.40;99.90
6724;DHT22;3399;52.530;13.304;2024-01-07T12:07:41;-0.40;99.90
6724;DHT22;3399;52.530;13.304;2024-01-07T12:10:09;-0.50;99.90
6724;DHT22;3399;52.530;13.304;2024-01-07T12:12:41;-0.40;99.90
6724;DHT22;3399;52.530;13.304;2024-01-07T12:15:08;-0.30;99.90
6724;DHT22;3399;52.530;13.304;2024-01-07T12:17:34;0.00;99.90
6724;DHT22;3399;52.530;13.304;2024-01-07T12:20:00;0.00;99.90
6724;DHT22;3399;52.530;13.304;2024-01-07T12:22:28;-0.10;99.90
6724;DHT22;3399;52.530;13.304;2024-01-07T12:25:04;-0.10;99.90
6724;DHT22;3399;52.530;13.304;2024-01-07T12:27:30;-0.20;99.90
6724;DHT22;3399;52.530;13.304;2024-01-07T12:29:57;-0.10;99.90
6724;DHT22;3399;52.530;13.304;2024-01-07T12:32:23;-0.10;99.90
6724;DHT22;3399;52.530;13.304;2024-01-07T12:34:51;0.00;99.90
6724;DHT22;3399;52.530;13.304;2024-01-07T12:37:17;0.00;99.90
6724;DHT22;3399;52.530;13.304;2024-01-07T12:39:42;0.10;99.90
6724;DHT22;3399;52.530;13.304;2024-01-07T12:42:08;0.30;99.90
6724;DHT22;3399;52.530;13.304;2024-01-07T12:44:36;0.30;99.90
6724;DHT22;3399;52.530;13.304;2024-01-07T12:47:02;0.40;99.90
6724;DHT22;3399;52.530;13.304;2024-01-07T12:49:28;0.60;99.90
6724;DHT22;3399;52.530;13.304;2024-01-07T12:51:54;0.60;99.90
6724;DHT22;3399;52.530;13.304;2024-01-07T12:54:19;0.60;99.90
6724;DHT22;3399;52.530;13.304;2024-01-07T12:56:45;0.80;99.90
6724;DHT22;3399;52.530;13.304;2024-01-07T12:59:10;0.90;99.90
6724;DHT22;3399;52.530;13.304;2024-01-07T13:01:36;0.80;99.90
6724;DHT22;3399;52.530;13.304;2024-01-07T13:04:02;0.80;99.90
6724;DHT22;3399;52.530;13.304;2024-01-07T13:06:28;0.80;99.90
6724;DHT22;3399;52.530;13.304;2024-01-07T13:08:54;0.80;99.90
6724;DHT22;3399;52.530;13.304;2024-01-07T13:11:20;0.80;99.90
6724;DHT22;3399;52.530;13.304;2024-01-07T13:13:45;1.10;99.90
6724;DHT22;3399;52.530;13.304;2024-01-07T13:16:11;1.10;99.90
6724;DHT22;3399;52.530;13.304;2024-01-07T13:18:37;1.20;99.90
6724;DHT22;3399;52.530;13.304;2024-01-07T13:21:03;1.20;99.90
6724;DHT22;3399;52.530;13.304;2024-01-07T13:23:29;1.20;99.90
6724;DHT22;3399;52.530;13.304;2024-01-07T13:25:55;1.20;99.90
6724;DHT22;3399;52.530;13.304;2024-01-07T13:28:21;1.30;99.90
6724;DHT22;3399;52.530;13.304;2024-01-07T13:30:47;1.30;99.90
6724;DHT22;3399;52.530;13.304;2024-01-07T13:33:12;1.40;99.90
6724;DHT22;3399;52.530;13.304;2024-01-07T13:35:38;1.30;99.90
6724;DHT22;3399;52.530;13.304;2024-01-07T13:38:04;1.30;99.90
6724;DHT22;3399;52.530;13.304;2024-01-07T13:40:29;1.20;99.90
6724;DHT22;3399;52.530;13.304;2024-01-07T13:42:54;1.10;99.90
6724;DHT22;3399;52.530;13.304;2024-01-07T13:45:20;1.00;99.90
6724;DHT22;3399;52.530;13.304;2024-01-07T13:47:48;0.80;99.90
6724;DHT22;3399;52.530;13.304;2024-01-07T13:50:13;0.80;99.90
6724;DHT22;3399;52.530;13.304;2024-01-07T13:52:39;0.80;99.90
6724;DHT22;3399;52.530;13.304;2024-01-07T13:55:05;0.80;99.90
6724;DHT22;3399;52.530;13.304;2024-01-07T13:57:30;0.70;99.90
6724;DHT22;3399;52.530;13.304;2024-01-07T13:59:56;0.60;99.90
6724;DHT22;3399;52.530;13.304;2024-01-07T14:02:21;0.70;99.90
6724;DHT22;3399;52.530;13.304;2024-01-07T14:04:47;0.70;99.90
6724;DHT22;3399;52.530;13.304;2024-01-07T14:07:13;0.80;99.90
6724;DHT22;3399;52.530;13.304;2024-01-07T14:09:39;0.80;99.90
6724;DHT22;3399;52.530;13.304;2024-01-07T14:12:04;0.90;99.90
6724;DHT22;3399;52.530;13.304;2024-01-07T14:14:30;0.80;99.90
6724;DHT22;3399;52.530;13.304;2024-01-07T14:16:55;0.80;99.90
6724;DHT22;3399;52.530;13.304;2024-01-07T14:19:21;0.70;99.90
6724;DHT22;3399;52.530;13.304;2024-01-07T14:21:47;0.90;99.90
6724;DHT22;3399;52.530;13.304;2024-01-07T14:24:13;0.70;99.90
6724;DHT22;3399;52.530;13.304;2024-01-07T14:26:38;0.60;99.90
6724;DHT22;3399;52.530;13.304;2024-01-07T14:29:05;0.70;99.90
6724;DHT22;3399;52.530;13.304;2024-01-07T14:31:30;0.80;99.90
6724;DHT22;3399;52.530;13.304;2024-01-07T14:33:56;0.80;99.90
6724;DHT22;3399;52.530;13.304;2024-01-07T14:36:21;0.90;99.90
6724;DHT22;3399;52.530;13.304;2024-01-07T14:38:47;0.80;99.90
6724;DHT22;3399;52.530;13.304;2024-01-07T14:41:14;0.80;99.90
6724;DHT22;3399;52.530;13.304;2024-01-07T14:43:40;0.90;99.90
6724;DHT22;3399;52.530;13.304;2024-01-07T14:46:08;1.00;99.90
6724;DHT22;3399;52.530;13.304;2024-01-07T14:48:34;0.90;99.90
6724;DHT22;3399;52.530;13.304;2024-01-07T14:51:00;0.90;99.90
6724;DHT22;3399;52.530;13.304;2024-01-07T14:53:26;0.90;99.90
6724;DHT22;3399;52.530;13.304;2024-01-07T14:55:54;0.90;99.90
6724;DHT22;3399;52.530;13.304;2024-01-07T14:58:19;0.90;99.90
6724;DHT22;3399;52.530;13.304;2024-01-07T15:00:47;1.00;99.90
6724;DHT22;3399;52.530;13.304;2024-01-07T15:03:13;0.80;99.90
6724;DHT22;3399;52.530;13.304;2024-01-07T15:05:38;0.90;99.90
6724;DHT22;3399;52.530;13.304;2024-01-07T15:08:05;1.10;99.90
6724;DHT22;3399;52.530;13.304;2024-01-07T15:10:31;1.00;99.90
6724;DHT22;3399;52.530;13.304;2024-01-07T15:12:57;1.00;99.90
6724;DHT22;3399;52.530;13.304;2024-01-07T15:15:23;1.10;99.90
6724;DHT22;3399;52.530;13.304;2024-01-07T15:17:55;1.10;99.90
6724;DHT22;3399;52.530;13.304;2024-01-07T15:20:20;1.00;99.90
6724;DHT22;3399;52.530;13.304;2024-01-07T15:22:46;1.10;99.90
6724;DHT22;3399;52.530;13.304;2024-01-07T15:25:11;1.00;99.90
6724;DHT22;3399;52.530;13.304;2024-01-07T15:27:37;0.90;99.90
6724;DHT22;3399;52.530;13.304;2024-01-07T15:30:02;0.90;99.90
6724;DHT22;3399;52.530;13.304;2024-01-07T15:32:29;1.00;99.90
6724;DHT22;3399;52.530;13.304;2024-01-07T15:34:55;1.00;99.90
6724;DHT22;3399;52.530;13.304;2024-01-07T15:37:21;0.90;99.90
6724;DHT22;3399;52.530;13.304;2024-01-07T15:39:47;1.10;99.90
6724;DHT22;3399;52.530;13.304;2024-01-07T15:42:12;0.90;99.90
6724;DHT22;3399;52.530;13.304;2024-01-07T15:44:38;1.00;99.90